Time;durP1;ratioP1;P1;durP2;ratioP2;P2;SDS_P1;SDS_P2;PMS_P1;PMS_P2;Temp;Humidity;BMP_temperature;BMP_pressure;BME280_temperature;BME280_humidity;BME280_pressure;Samples;Min_cycle;Max_cycle;Signal;HPM_P1;HPM_P2
2023/03/13 00:01:31;;;;;;;10.53;1.93;;;;;;;-145.69;100.00;52487.97;5114636;28;20189;-81
2023/03/13 00:03:59;;;;;;;5.37;1.37;;;;;;;-145.69;100.00;52412.69;5114776;28;20224;-81
2023/03/13 00:06:31;;;;;;;7.33;1.57;;;;;;;-145.69;100.00;52450.31;5097095;28;20264;-79
2023/03/13 00:08:59;;;;;;;8.93;1.40;;;;;;;-145.69;100.00;52414.69;5114371;28;20197;-81
2023/03/13 00:11:26;;;;;;;6.63;1.53;;;;;;;-145.69;100.00;52446.38;5114375;28;20193;-81
2023/03/13 00:13:55;;;;;;;5.57;1.37;;;;;;;-145.69;100.00;52424.59;5114580;28;20291;-81
2023/03/13 00:16:24;;;;;;;7.67;1.60;;;;;;;-145.69;100.00;52434.47;5113822;28;20668;-79
2023/03/13 00:18:53;;;;;;;4.23;1.30;;;;;;;-145.69;100.00;52444.38;5113658;28;20201;-79
2023/03/13 00:21:23;;;;;;;9.83;1.63;;;;;;;-145.69;100.00;52446.38;5114051;28;20197;-80
2023/03/13 00:23:50;;;;;;;6.47;1.53;;;;;;;-145.69;100.00;52444.38;5113506;28;20204;-79
2023/03/13 00:26:21;;;;;;;9.83;1.23;;;;;;;-145.69;100.00;52420.63;5113797;28;20710;-79
2023/03/13 00:28:50;;;;;;;6.37;1.20;;;;;;;-145.69;100.00;52400.81;5113861;28;20193;-79
2023/03/13 00:31:18;;;;;;;7.13;1.57;;;;;;;-145.69;100.00;52420.63;5113676;28;20658;-79
2023/03/13 00:33:47;;;;;;;6.93;1.20;;;;;;;-145.69;100.00;52416.66;5113547;28;20645;-79
2023/03/13 00:36:15;;;;;;;9.40;1.90;;;;;;;-145.69;100.00;52458.25;5113375;28;20216;-79
2023/03/13 00:38:44;;;;;;;6.97;1.13;;;;;;;-145.69;100.00;52424.59;5113752;28;20204;-79
2023/03/13 00:41:12;;;;;;;9.20;1.17;;;;;;;-145.69;100.00;52420.63;5113558;28;20284;-79
2023/03/13 00:43:40;;;;;;;4.23;1.13;;;;;;;-145.69;100.00;52466.16;5112570;28;20201;-78
2023/03/13 00:46:07;;;;;;;6.73;1.27;;;;;;;-145.69;100.00;52418.63;5113919;28;20228;-79
2023/03/13 00:48:34;;;;;;;6.37;1.40;;;;;;;-145.69;100.00;52456.28;5113906;28;20225;-78
2023/03/13 00:51:02;;;;;;;4.27;1.03;;;;;;;-145.69;100.00;52448.34;5113625;28;20197;-79
2023/03/13 00:53:29;;;;;;;6.90;1.40;;;;;;;-145.69;100.00;52468.16;5109961;28;20586;-79
2023/03/13 00:55:59;;;;;;;3.60;0.93;;;;;;;-145.69;100.00;52440.44;5092878;28;20198;-79
2023/03/13 00:58:28;;;;;;;4.80;1.10;;;;;;;-145.69;100.00;52448.34;5092853;28;20209;-80
2023/03/13 01:00:55;;;;;;;8.87;1.33;;;;;;;-145.69;100.00;52446.38;5112391;28;20276;-79
2023/03/13 01:03:24;;;;;;;3.77;0.90;;;;;;;-145.69;100.00;52424.59;5113542;28;20201;-79
2023/03/13 01:05:56;;;;;;;8.63;1.37;;;;;;;-145.69;100.00;52416.66;5112846;28;20249;-79
2023/03/13 01:08:23;;;;;;;3.50;0.87;;;;;;;-145.69;100.00;52398.84;5113454;28;20224;-80
2023/03/13 01:10:50;;;;;;;5.17;1.27;;;;;;;-145.69;100.00;52448.34;5112693;28;20193;-79
2023/03/13 01:13:18;;;;;;;7.43;1.00;;;;;;;-145.69;100.00;52434.47;5113733;28;20200;-79
2023/03/13 01:15:44;;;;;;;4.20;1.03;;;;;;;-145.69;100.00;52434.47;5113455;28;20224;-79
2023/03/13 01:18:14;;;;;;;6.40;1.07;;;;;;;-145.69;100.00;52444.38;5114079;28;20198;-80
2023/03/13 01:20:40;;;;;;;2.33;0.90;;;;;;;-145.69;100.00;52464.19;5112875;28;20285;-80
2023/03/13 01:23:10;;;;;;;2.30;0.80;;;;;;;-145.69;100.00;52414.69;5113501;28;20225;-80
2023/03/13 01:25:38;;;;;;;2.20;0.83;;;;;;;-145.69;100.00;52420.63;5112551;28;20197;-79
2023/03/13 01:28:05;;;;;;;2.03;0.80;;;;;;;-145.69;100.00;52462.22;5113189;28;20198;-79
2023/03/13 01:30:36;;;;;;;4.93;1.20;;;;;;;-145.69;100.00;52450.31;5112989;28;20200;-79
2023/03/13 01:33:05;;;;;;;3.87;0.80;;;;;;;-145.69;100.00;52416.66;5113114;28;20244;-79
2023/03/13 01:35:34;;;;;;;4.43;0.80;;;;;;;-145.69;100.00;52432.50;5113104;28;20202;-79
2023/03/13 01:38:01;;;;;;;4.13;0.97;;;;;;;-145.69;100.00;52436.47;5112634;28;20193;-81
2023/03/13 01:40:27;;;;;;;1.60;0.90;;;;;;;-145.69;100.00;52412.69;5112512;28;20193;-79
2023/03/13 01:42:55;;;;;;;2.00;1.00;;;;;;;-145.69;100.00;52456.28;5112526;28;20232;-79
2023/03/13 01:45:59;;;;;;;4.43;1.00;;;;;;;-145.69;100.00;52454.28;5112472;28;20208;-79
2023/03/13 01:48:34;;;;;;;1.70;0.80;;;;;;;-145.69;100.00;52424.59;5102278;28;20199;-79
2023/03/13 01:51:03;;;;;;;7.70;0.90;;;;;;;-145.69;100.00;52422.59;5112515;28;20232;-78
2023/03/13 01:53:33;;;;;;;5.93;1.07;;;;;;;-145.69;100.00;52396.84;5113003;28;20204;-78
2023/03/13 01:56:00;;;;;;;4.93;1.00;;;;;;;-145.69;100.00;52450.31;5115519;28;20201;-78
2023/03/13 01:58:29;;;;;;;4.13;0.80;;;;;;;-145.69;100.00;52416.66;5116426;28;20202;-79
2023/03/13 02:00:56;;;;;;;3.73;0.83;;;;;;;-145.69;100.00;52442.41;5116397;28;20238;-79
2023/03/13 02:03:27;;;;;;;2.93;0.60;;;;;;;-145.69;100.00;52428.53;5116659;28;20193;-78
2023/03/13 02:05:55;;;;;;;6.57;1.17;;;;;;;-145.69;100.00;52444.38;5116456;28;20197;-79
2023/03/13 02:08:25;;;;;;;11.53;1.37;;;;;;;-145.69;100.00;52468.16;5115795;28;20196;-79
2023/03/13 02:10:58;;;;;;;1.27;0.87;;;;;;;-145.69;100.00;52416.66;5116708;28;20220;-79
2023/03/13 02:13:25;;;;;;;4.27;1.20;;;;;;;-145.69;100.00;52432.50;5116271;28;20207;-82
2023/03/13 02:15:52;;;;;;;3.50;1.10;;;;;;;-145.69;100.00;52422.59;5116332;28;20521;-79
2023/03/13 02:18:18;;;;;;;3.17;0.90;;;;;;;-145.69;100.00;52410.72;5116515;28;20193;-81
2023/03/13 02:20:48;;;;;;;3.97;1.03;;;;;;;-145.69;100.00;52420.63;5116297;28;20201;-81
2023/03/13 02:23:22;;;;;;;1.87;0.77;;;;;;;-145.69;100.00;52442.41;5116297;28;20671;-81
2023/03/13 02:25:52;;;;;;;4.23;1.00;;;;;;;-145.69;100.00;52448.34;5115901;28;20208;-80
2023/03/13 02:28:21;;;;;;;1.83;0.80;;;;;;;-145.69;100.00;52420.63;5116023;28;20292;-81
2023/03/13 02:30:50;;;;;;;3.53;0.83;;;;;;;-145.69;100.00;52454.28;5115951;28;20207;-80
2023/03/13 02:33:20;;;;;;;1.17;0.70;;;;;;;-145.69;100.00;52420.63;5115624;28;20208;-81
2023/03/13 02:35:48;;;;;;;6.57;1.00;;;;;;;-145.69;100.00;52412.69;5116011;28;20536;-81
2023/03/13 02:38:20;;;;;;;1.57;0.83;;;;;;;-145.69;100.00;52430.53;5115563;28;20196;-80
2023/03/13 02:40:49;;;;;;;4.40;0.93;;;;;;;-145.69;100.00;52464.19;5115677;28;20189;-81
2023/03/13 02:43:22;;;;;;;1.80;0.77;;;;;;;-145.69;100.00;52456.28;5115617;28;20237;-81
2023/03/13 02:46:04;;;;;;;6.67;0.80;;;;;;;-145.69;100.00;52428.53;5115543;28;20193;-81
2023/03/13 02:48:33;;;;;;;1.23;0.90;;;;;;;-145.69;100.00;52392.91;5115604;28;20560;-80
2023/03/13 02:51:03;;;;;;;1.63;0.80;;;;;;;-145.69;100.00;52440.44;5115445;28;20205;-81
2023/03/13 02:53:30;;;;;;;5.23;0.77;;;;;;;-145.69;100.00;52424.59;5115576;28;20201;-80
2023/03/13 02:55:56;;;;;;;8.07;0.77;;;;;;;-145.69;100.00;52416.66;5115710;28;20201;-81
2023/03/13 02:58:25;;;;;;;2.83;0.70;;;;;;;-145.69;100.00;52420.63;5115340;28;20201;-81
2023/03/13 03:00:52;;;;;;;2.20;0.80;;;;;;;-145.69;100.00;52426.56;5102156;28;20194;-81
2023/03/13 03:03:18;;;;;;;2.10;0.90;;;;;;;-145.69;100.00;52432.50;5095784;28;20201;-81
2023/03/13 03:05:45;;;;;;;4.17;0.90;;;;;;;-145.69;100.00;52482.00;5107999;28;20205;-82
2023/03/13 03:08:11;;;;;;;2.27;0.80;;;;;;;-145.69;100.00;52478.06;5114244;28;20628;-81
2023/03/13 03:10:38;;;;;;;2.47;0.80;;;;;;;-145.69;100.00;52420.63;5115427;28;20197;-81
2023/03/13 03:13:04;;;;;;;2.60;0.77;;;;;;;-145.69;100.00;52454.28;5114991;28;20204;-81
2023/03/13 03:15:32;;;;;;;1.67;0.70;;;;;;;-145.69;100.00;52440.44;5115201;28;20205;-81
2023/03/13 03:17:59;;;;;;;3.53;0.63;;;;;;;-145.69;100.00;52448.34;5115239;28;20193;-81
2023/03/13 03:20:25;;;;;;;2.23;0.80;;;;;;;-145.69;100.00;52430.53;5114968;28;20202;-81
2023/03/13 03:22:52;;;;;;;2.53;0.80;;;;;;;-145.69;100.00;52448.34;5115233;28;20193;-81
2023/03/13 03:25:18;;;;;;;2.67;0.80;;;;;;;-145.69;100.00;52448.34;5114980;28;20201;-81
2023/03/13 03:27:44;;;;;;;1.97;0.70;;;;;;;-145.69;100.00;52412.69;5114638;28;20225;-81
2023/03/13 03:30:12;;;;;;;2.80;0.73;;;;;;;-145.69;100.00;52452.31;5114474;28;20204;-81
2023/03/13 03:32:40;;;;;;;1.60;1.00;;;;;;;-145.69;100.00;52406.75;5114773;28;20208;-81
2023/03/13 03:35:07;;;;;;;1.13;0.70;;;;;;;-145.69;100.00;52448.34;5115008;28;20213;-81
2023/03/13 03:37:33;;;;;;;1.80;0.53;;;;;;;-145.69;100.00;52428.53;5114449;28;20198;-82
2023/03/13 03:40:00;;;;;;;2.80;0.90;;;;;;;-145.69;100.00;52452.31;5114711;28;20201;-80
2023/03/13 03:42:26;;;;;;;2.30;0.60;;;;;;;-145.69;100.00;52430.53;5114471;28;20237;-81
2023/03/13 03:44:53;;;;;;;5.90;0.90;;;;;;;-145.69;100.00;52424.59;5114425;28;20615;-81
2023/03/13 03:47:19;;;;;;;3.67;1.00;;;;;;;-145.69;100.00;52420.63;5114821;28;20235;-80
2023/03/13 03:49:47;;;;;;;4.37;1.50;;;;;;;-145.69;100.00;52424.59;5114047;28;20652;-81
2023/03/13 03:52:14;;;;;;;3.60;1.00;;;;;;;-145.69;100.00;52418.63;5114871;28;20212;-81
2023/03/13 03:54:40;;;;;;;2.27;0.63;;;;;;;-145.69;100.00;52394.88;5114423;28;20202;-81
2023/03/13 03:57:07;;;;;;;2.70;0.80;;;;;;;-145.69;100.00;52432.50;5114657;28;20205;-81
2023/03/13 03:59:33;;;;;;;0.70;0.60;;;;;;;-145.69;100.00;52450.31;5114123;28;20211;-80
2023/03/13 04:02:00;;;;;;;1.40;0.67;;;;;;;-145.69;100.00;52420.63;5113998;28;20200;-81
2023/03/13 04:04:27;;;;;;;3.03;0.90;;;;;;;-145.69;100.00;52450.31;5114437;28;20225;-80
2023/03/13 04:06:55;;;;;;;2.60;1.20;;;;;;;-145.69;100.00;52412.69;5113998;28;20710;-80
2023/03/13 04:09:21;;;;;;;3.80;1.00;;;;;;;-145.69;100.00;52400.81;5114112;28;20200;-81
2023/03/13 04:11:48;;;;;;;1.87;0.77;;;;;;;-145.69;100.00;52420.63;5114259;28;20197;-81
2023/03/13 04:14:14;;;;;;;2.43;0.77;;;;;;;-145.69;100.00;52436.47;5114197;28;20660;-82
2023/03/13 04:16:41;;;;;;;1.80;0.60;;;;;;;-145.69;100.00;52410.72;5114049;28;20193;-80
2023/03/13 04:19:07;;;;;;;1.97;0.50;;;;;;;-145.69;100.00;52390.91;5114107;28;20201;-81
2023/03/13 04:21:34;;;;;;;1.13;0.60;;;;;;;-145.69;100.00;52412.69;5113976;28;20189;-81
2023/03/13 04:24:02;;;;;;;1.57;0.60;;;;;;;-145.69;100.00;52381.00;5114392;28;20197;-81
2023/03/13 04:26:28;;;;;;;0.60;0.60;;;;;;;-145.69;100.00;52396.84;5113544;28;20200;-81
2023/03/13 04:28:54;;;;;;;2.37;0.90;;;;;;;-145.69;100.00;52400.81;5113394;28;20606;-81
2023/03/13 04:31:21;;;;;;;1.03;0.60;;;;;;;-145.69;100.00;52432.50;5113995;28;20205;-80
2023/03/13 04:33:47;;;;;;;2.07;0.87;;;;;;;-145.69;100.00;52432.50;5113384;28;20205;-81
2023/03/13 04:36:14;;;;;;;0.60;0.60;;;;;;;-145.69;100.00;52446.38;5114357;28;20279;-81
2023/03/13 04:38:40;;;;;;;0.93;0.50;;;;;;;-145.69;100.00;52404.78;5113940;28;20559;-80
2023/03/13 04:41:08;;;;;;;2.10;0.60;;;;;;;-145.69;100.00;52422.59;5113480;28;20201;-80
2023/03/13 04:43:35;;;;;;;1.17;0.57;;;;;;;-145.69;100.00;52416.66;5113630;28;20224;-81
2023/03/13 04:46:01;;;;;;;0.93;0.60;;;;;;;-145.69;100.00;52416.66;5113946;28;20198;-80
2023/03/13 04:48:28;;;;;;;1.33;0.70;;;;;;;-145.69;100.00;52416.66;5113640;28;20345;-80
2023/03/13 04:50:54;;;;;;;0.80;0.60;;;;;;;-145.69;100.00;52394.88;5113566;28;20201;-80
2023/03/13 04:53:21;;;;;;;0.83;0.50;;;;;;;-145.69;100.00;52392.91;5113180;28;20648;-80
2023/03/13 04:55:49;;;;;;;3.73;0.90;;;;;;;-145.69;100.00;52416.66;5100846;28;20233;-81
2023/03/13 04:58:17;;;;;;;2.80;0.70;;;;;;;-145.69;100.00;52410.72;5092917;28;20206;-81
2023/03/13 05:00:44;;;;;;;2.37;0.70;;;;;;;-145.69;100.00;52418.63;5103797;28;20194;-81
2023/03/13 05:03:10;;;;;;;1.77;0.80;;;;;;;-145.69;100.00;52410.72;5113388;28;20201;-80
2023/03/13 05:05:37;;;;;;;1.60;0.77;;;;;;;-145.69;100.00;52404.78;5113675;28;20232;-80
2023/03/13 05:08:04;;;;;;;0.63;0.53;;;;;;;-145.69;100.00;52388.94;5113623;28;20255;-80
2023/03/13 05:10:31;;;;;;;1.33;0.70;;;;;;;-145.69;100.00;52420.63;5112822;28;20288;-80
2023/03/13 05:12:57;;;;;;;0.90;0.57;;;;;;;-145.69;100.00;52412.69;5113557;28;20227;-81
2023/03/13 05:15:25;;;;;;;0.80;0.50;;;;;;;-145.69;100.00;52402.78;5113057;28;20202;-81
2023/03/13 05:17:52;;;;;;;1.63;0.60;;;;;;;-145.69;100.00;52420.63;5113451;28;20594;-81
2023/03/13 05:20:18;;;;;;;1.67;0.60;;;;;;;-145.69;100.00;52428.53;5113419;28;20205;-81
2023/03/13 05:22:45;;;;;;;1.07;0.70;;;;;;;-145.69;100.00;52418.63;5112626;28;20648;-81
2023/03/13 05:25:11;;;;;;;1.07;0.60;;;;;;;-145.69;100.00;52456.28;5113398;28;20544;-80
2023/03/13 05:27:38;;;;;;;0.90;0.60;;;;;;;-145.69;100.00;52424.59;5113177;28;20233;-80
2023/03/13 05:30:05;;;;;;;2.43;0.70;;;;;;;-145.69;100.00;52432.50;5114152;28;20563;-81
2023/03/13 05:32:33;;;;;;;0.67;0.60;;;;;;;-145.69;100.00;52373.09;5117393;28;20212;-81
2023/03/13 05:34:59;;;;;;;1.03;0.50;;;;;;;-145.69;100.00;52381.00;5117244;28;20205;-81
2023/03/13 05:37:26;;;;;;;2.57;0.70;;;;;;;-145.69;100.00;52396.84;5117158;28;20208;-80
2023/03/13 05:39:52;;;;;;;2.53;0.60;;;;;;;-145.69;100.00;52398.84;5117332;28;20197;-80
2023/03/13 05:42:19;;;;;;;1.27;0.50;;;;;;;-145.69;100.00;52394.88;5116923;28;20225;-79
2023/03/13 05:44:45;;;;;;;0.67;0.60;;;;;;;-145.69;100.00;52406.75;5117727;28;20193;-81
2023/03/13 05:47:12;;;;;;;1.07;0.63;;;;;;;-145.69;100.00;52396.84;5116785;28;20213;-81
2023/03/13 05:49:40;;;;;;;0.93;0.50;;;;;;;-145.69;100.00;52416.66;5117437;28;20200;-81
2023/03/13 05:52:06;;;;;;;1.50;0.60;;;;;;;-145.69;100.00;52452.31;5116704;28;20201;-80
2023/03/13 05:54:33;;;;;;;1.17;0.80;;;;;;;-145.69;100.00;52432.50;5117465;28;20208;-81
2023/03/13 05:56:59;;;;;;;1.20;0.60;;;;;;;-145.69;100.00;52456.28;5116864;28;20193;-81
2023/03/13 05:59:26;;;;;;;1.50;0.50;;;;;;;-145.69;100.00;52412.69;5117848;28;20197;-80
2023/03/13 06:01:52;;;;;;;1.70;0.73;;;;;;;-145.69;100.00;52422.59;5116530;28;20189;-80
2023/03/13 06:04:19;;;;;;;0.97;0.60;;;;;;;-145.69;100.00;52426.56;5116579;28;20201;-80
2023/03/13 06:06:47;;;;;;;0.73;0.70;;;;;;;-145.69;100.00;52458.25;5116772;28;20193;-80
2023/03/13 06:09:14;;;;;;;1.70;0.50;;;;;;;-145.69;100.00;52414.69;5116773;28;20228;-80
2023/03/13 06:11:40;;;;;;;1.53;0.50;;;;;;;-145.69;100.00;52416.66;5116701;28;20204;-80
2023/03/13 06:14:07;;;;;;;2.03;0.60;;;;;;;-145.69;100.00;52420.63;5116657;28;20223;-80
2023/03/13 06:16:33;;;;;;;1.60;0.60;;;;;;;-145.69;100.00;52434.47;5116650;28;20202;-80
2023/03/13 06:19:01;;;;;;;0.83;0.43;;;;;;;-145.69;100.00;52416.66;5116687;28;20663;-79
2023/03/13 06:21:27;;;;;;;2.13;0.60;;;;;;;-145.69;100.00;52424.59;5116725;28;20207;-81
2023/03/13 06:23:55;;;;;;;2.73;0.50;;;;;;;-145.69;100.00;52446.38;5116804;28;20201;-81
2023/03/13 06:26:23;;;;;;;3.03;0.60;;;;;;;-145.69;100.00;52468.16;5116349;28;20205;-81
2023/03/13 06:28:50;;;;;;;1.20;0.57;;;;;;;-145.69;100.00;52394.88;5116778;28;20621;-81
2023/03/13 06:31:19;;;;;;;1.13;0.50;;;;;;;-145.69;100.00;52428.53;5116573;28;20202;-80
2023/03/13 06:33:45;;;;;;;1.20;0.60;;;;;;;-145.69;100.00;52416.66;5115685;28;20197;-81
2023/03/13 06:36:14;;;;;;;0.77;0.60;;;;;;;-145.69;100.00;52396.84;5117408;28;20209;-81
2023/03/13 06:38:41;;;;;;;2.00;0.60;;;;;;;-145.69;100.00;52406.75;5117366;28;20250;-81
2023/03/13 06:41:10;;;;;;;1.07;0.50;;;;;;;-145.69;100.00;52408.75;5115929;28;20220;-80
2023/03/13 06:43:39;;;;;;;2.93;0.60;;;;;;;-145.69;100.00;52436.47;5116367;28;20576;-81
2023/03/13 06:46:09;;;;;;;1.13;0.60;;;;;;;-145.69;100.00;52456.28;5117030;28;20201;-82
2023/03/13 06:48:38;;;;;;;0.63;0.57;;;;;;;-145.69;100.00;52424.59;5118012;28;20632;-81
2023/03/13 06:51:11;;;;;;;0.50;0.50;;;;;;;-145.69;100.00;52416.66;5118034;28;20200;-81
2023/03/13 06:53:39;;;;;;;0.40;0.40;;;;;;;-145.69;100.00;52392.91;5118327;28;20576;-81
2023/03/13 06:56:06;;;;;;;0.57;0.57;;;;;;;-145.69;100.00;52420.63;5118226;28;20232;-82
2023/03/13 06:58:39;;;;;;;3.20;0.70;;;;;;;-145.69;100.00;52410.72;5118158;28;20197;-82
2023/03/13 07:01:09;;;;;;;2.93;0.60;;;;;;;-145.69;100.00;52420.63;5117238;28;20201;-80
2023/03/13 07:03:36;;;;;;;0.67;0.67;;;;;;;-145.69;100.00;52386.97;5118121;28;20195;-81
2023/03/13 07:06:12;;;;;;;1.73;1.43;;;;;;;-145.69;100.00;52452.31;5106727;28;20206;-80
2023/03/13 07:08:42;;;;;;;1.17;0.60;;;;;;;-145.69;100.00;52454.28;5099401;28;20592;-81
2023/03/13 07:11:14;;;;;;;1.60;0.70;;;;;;;-145.69;100.00;52398.84;5117798;28;20724;-80
2023/03/13 07:13:42;;;;;;;0.73;0.73;;;;;;;-145.69;100.00;52412.69;5117599;28;20198;-81
2023/03/13 07:16:10;;;;;;;2.60;0.63;;;;;;;-145.69;100.00;52388.94;5118141;28;20206;-80
2023/03/13 07:18:38;;;;;;;1.10;0.80;;;;;;;-145.69;100.00;52375.06;5117978;28;20224;-81
2023/03/13 07:21:06;;;;;;;0.60;0.60;;;;;;;-145.69;100.00;52416.66;5118268;28;20202;-81
2023/03/13 07:23:34;;;;;;;2.53;1.10;;;;;;;-145.69;100.00;52404.78;5117531;28;20204;-81
2023/03/13 07:26:05;;;;;;;1.30;0.70;;;;;;;-145.69;100.00;52430.53;5117303;28;20205;-81
2023/03/13 07:28:34;;;;;;;0.93;0.80;;;;;;;-145.69;100.00;52420.63;5117442;28;20221;-81
2023/03/13 07:31:07;;;;;;;1.37;0.70;;;;;;;-145.69;100.00;52396.84;5118273;28;20236;-81
2023/03/13 07:33:34;;;;;;;0.70;0.67;;;;;;;-145.69;100.00;52402.78;5117756;28;20194;-81
2023/03/13 07:36:00;;;;;;;3.27;0.73;;;;;;;-145.69;100.00;52392.91;5117809;28;20284;-82
2023/03/13 07:38:27;;;;;;;3.17;0.73;;;;;;;-145.69;100.00;52398.84;5119587;28;20675;-81
2023/03/13 07:40:57;;;;;;;1.23;0.67;;;;;;;-145.69;100.00;52398.84;5120997;28;20204;-80
2023/03/13 07:43:24;;;;;;;1.60;0.63;;;;;;;-145.69;100.00;52396.84;5118610;28;20225;-81
2023/03/13 07:45:55;;;;;;;0.83;0.60;;;;;;;-145.69;100.00;52432.50;5119205;28;20217;-80
2023/03/13 07:48:24;;;;;;;1.47;0.60;;;;;;;-145.69;100.00;52418.63;5118904;28;20760;-81
2023/03/13 07:50:51;;;;;;;1.50;0.70;;;;;;;-145.69;100.00;52400.81;5117845;28;20258;-81
2023/03/13 07:53:20;;;;;;;0.50;0.50;;;;;;;-145.69;100.00;52450.31;5117712;28;20207;-81
2023/03/13 07:55:58;;;;;;;1.03;0.70;;;;;;;-145.69;100.00;52414.69;5119787;28;20193;-81
2023/03/13 07:58:26;;;;;;;1.67;0.80;;;;;;;-145.69;100.00;52426.56;5118530;28;20655;-82
2023/03/13 08:00:53;;;;;;;1.57;0.73;;;;;;;-145.69;100.00;52416.66;5115807;28;20189;-81
2023/03/13 08:03:39;;;;;;;0.87;0.70;;;;;;;-145.69;100.00;52414.69;5116496;28;20197;-81
2023/03/13 08:06:10;;;;;;;1.07;0.60;;;;;;;-145.69;100.00;52404.78;5117194;28;20197;-81
2023/03/13 08:08:40;;;;;;;1.10;0.60;;;;;;;-145.69;100.00;52410.72;5116853;28;20249;-81
2023/03/13 08:11:08;;;;;;;2.00;0.70;;;;;;;-145.69;100.00;52432.50;5118230;28;20229;-81
2023/03/13 08:13:40;;;;;;;0.63;0.60;;;;;;;-145.69;100.00;52432.50;5114778;28;20726;-80
2023/03/13 08:16:08;;;;;;;1.50;0.80;;;;;;;-145.69;100.00;52396.84;5116898;28;20197;-82
2023/03/13 08:18:38;;;;;;;3.30;0.90;;;;;;;-145.69;100.00;52400.81;5116042;28;20204;-81
2023/03/13 08:21:07;;;;;;;2.70;0.70;;;;;;;-145.69;100.00;52440.44;5115889;28;20952;-81
2023/03/13 08:23:33;;;;;;;2.00;0.60;;;;;;;-145.69;100.00;52390.91;5115843;28;20206;-82
2023/03/13 08:26:05;;;;;;;12.77;4.38;;;;;;;-145.69;100.00;52392.91;5115865;28;20572;-82
2023/03/13 08:28:32;;;;;;;1.92;0.93;;;;;;;-145.69;100.00;52414.69;5113893;28;20248;-81
2023/03/13 08:30:58;;;;;;;1.50;1.07;;;;;;;-145.69;100.00;52388.94;5113953;28;20197;-81
2023/03/13 08:33:25;;;;;;;3.33;1.20;;;;;;;-145.69;100.00;52420.63;5113626;28;20284;-82
2023/03/13 08:35:53;;;;;;;1.40;1.00;;;;;;;-145.69;100.00;52432.50;5113541;28;20547;-80
2023/03/13 08:38:19;;;;;;;2.25;1.52;;;;;;;-145.69;100.00;52394.88;5113939;28;20201;-82
2023/03/13 08:40:45;;;;;;;2.20;0.82;;;;;;;-145.69;100.00;52357.25;5113446;28;20239;-81
2023/03/13 08:43:12;;;;;;;3.22;1.40;;;;;;;-145.69;100.00;52386.97;5113679;28;20225;-82
2023/03/13 08:45:38;;;;;;;3.38;1.27;;;;;;;-145.69;100.00;52365.16;5113830;28;20198;-79
2023/03/13 08:48:05;;;;;;;2.83;1.00;;;;;;;-145.69;100.00;52377.06;5095096;28;20691;-79
2023/03/13 08:50:31;;;;;;;1.95;1.00;;;;;;;-145.69;100.00;52367.16;5114063;28;20205;-81
2023/03/13 08:52:59;;;;;;;3.67;1.20;;;;;;;-145.69;100.00;52384.97;5113554;28;20201;-80
2023/03/13 08:55:26;;;;;;;4.30;1.25;;;;;;;-145.69;100.00;52377.06;5113033;28;20200;-79
2023/03/13 08:57:52;;;;;;;1.13;0.73;;;;;;;-145.69;100.00;52381.00;5113667;28;20194;-80
2023/03/13 09:00:19;;;;;;;0.60;0.60;;;;;;;-145.69;100.00;52386.97;5113416;28;20204;-81
2023/03/13 09:02:46;;;;;;;1.85;0.73;;;;;;;-145.69;100.00;52379.03;5111348;28;20205;-81
2023/03/13 09:05:12;;;;;;;1.17;1.00;;;;;;;-145.69;100.00;52416.66;5112773;28;20186;-83
2023/03/13 09:07:39;;;;;;;1.60;0.70;;;;;;;-145.69;100.00;52361.22;5113844;28;20197;-83
2023/03/13 09:10:08;;;;;;;3.90;0.93;;;;;;;-145.69;100.00;52396.84;5113714;28;20220;-83
2023/03/13 09:12:35;;;;;;;1.42;0.80;;;;;;;-145.69;100.00;52402.78;5116111;28;20205;-82
2023/03/13 09:15:01;;;;;;;1.73;0.90;;;;;;;-145.69;100.00;52377.06;5114883;28;20198;-82
2023/03/13 09:17:28;;;;;;;1.15;0.95;;;;;;;-145.69;100.00;52361.22;5116102;28;20197;-84
2023/03/13 09:19:54;;;;;;;2.35;1.00;;;;;;;-145.69;100.00;52384.97;5116192;28;20229;-83
2023/03/13 09:22:20;;;;;;;3.08;0.85;;;;;;;-145.69;100.00;52369.13;5116104;28;20660;-81
2023/03/13 09:24:47;;;;;;;2.60;1.02;;;;;;;-145.69;100.00;52377.06;5113629;28;20205;-82
2023/03/13 09:27:15;;;;;;;1.88;0.88;;;;;;;-145.69;100.00;52384.97;5118242;28;20204;-83
2023/03/13 09:29:41;;;;;;;2.65;1.10;;;;;;;-145.69;100.00;52355.28;5119067;28;20224;-83
2023/03/13 09:32:10;;;;;;;2.75;1.05;;;;;;;-145.69;100.00;52379.03;5118952;28;20200;-81
2023/03/13 09:34:37;;;;;;;1.65;0.82;;;;;;;-145.69;100.00;52375.06;5116464;28;20216;-82
2023/03/13 09:37:03;;;;;;;4.97;1.83;;;;;;;-145.69;100.00;52381.00;5092812;28;20667;-82
2023/03/13 09:39:30;;;;;;;3.70;1.13;;;;;;;-145.69;100.00;52353.28;5099913;28;20189;-82
2023/03/13 09:42:09;;;;;;;4.88;0.98;;;;;;;-145.69;100.00;52353.28;5112701;28;20228;-81
2023/03/13 09:44:42;;;;;;;3.47;0.93;;;;;;;-145.69;100.00;52369.13;5113755;28;20197;-83
2023/03/13 09:47:14;;;;;;;3.65;0.90;;;;;;;-145.69;100.00;52357.25;5114656;28;20264;-82
2023/03/13 09:49:46;;;;;;;1.95;0.80;;;;;;;-145.69;100.00;52369.13;5116467;28;20229;-81
2023/03/13 09:52:18;;;;;;;1.50;0.80;;;;;;;-145.69;100.00;52345.38;5115227;28;20205;-81
2023/03/13 09:54:49;;;;;;;3.38;0.90;;;;;;;-145.69;100.00;52369.13;5116538;28;20201;-84
2023/03/13 09:57:23;;;;;;;3.10;0.82;;;;;;;-145.69;100.00;52347.34;5116169;28;20197;-81
2023/03/13 09:59:57;;;;;;;3.13;1.15;;;;;;;-145.69;100.00;52317.66;5114866;28;20205;-81
2023/03/13 10:02:29;;;;;;;2.47;1.25;;;;;;;-145.69;100.00;52325.56;5114199;28;20190;-83
2023/03/13 10:05:03;;;;;;;1.00;0.88;;;;;;;-145.69;100.00;52341.41;5115420;28;20193;-81
2023/03/13 10:07:29;;;;;;;2.05;1.00;;;;;;;-145.69;100.00;52349.31;5113411;28;20730;-80
2023/03/13 10:09:56;;;;;;;3.65;1.02;;;;;;;-145.69;100.00;52365.16;5112752;28;20583;-80
2023/03/13 10:12:27;;;;;;;2.97;0.80;;;;;;;-145.69;100.00;52329.53;5112777;28;20550;-82
2023/03/13 10:15:07;;;;;;;0.82;0.70;;;;;;;-145.69;95.77;52369.13;5114027;28;20197;-82
2023/03/13 10:17:36;;;;;;;4.20;0.88;;;;;;;-145.69;98.00;52365.16;5122872;28;20201;-82
2023/03/13 10:20:16;;;;;;;1.40;0.90;;;;;;;-145.69;100.00;52369.13;5128713;28;20201;-83
2023/03/13 10:22:47;;;;;;;1.77;0.98;;;;;;;-145.69;92.37;52333.47;5123590;28;20221;-83
2023/03/13 10:25:27;;;;;;;4.45;1.08;;;;;;;-145.69;95.47;52341.41;5123200;28;20216;-82
2023/03/13 10:27:54;;;;;;;1.20;0.60;;;;;;;-145.69;92.69;52369.13;5120450;28;20277;-82
2023/03/13 10:30:25;;;;;;;1.42;0.75;;;;;;;-145.69;95.72;52341.41;5118676;28;20228;-83
2023/03/13 10:32:54;;;;;;;2.63;1.17;;;;;;;-145.69;96.30;52321.59;5125808;28;20288;-82
2023/03/13 10:35:23;;;;;;;3.47;1.00;;;;;;;-145.69;82.10;52321.59;5128558;28;20223;-83
2023/03/13 10:38:03;;;;;;;1.08;0.90;;;;;;;-145.69;84.00;52327.53;5108477;28;20209;-82
2023/03/13 10:40:30;;;;;;;2.55;1.00;;;;;;;-145.69;86.83;52278.03;5102070;28;20210;-84
2023/03/13 10:43:02;;;;;;;1.63;0.80;;;;;;;-145.69;89.04;52309.72;5130731;28;20233;-83
2023/03/13 10:45:35;;;;;;;2.53;0.75;;;;;;;-145.69;84.95;52305.75;5132515;28;20232;-83
2023/03/13 10:48:04;;;;;;;3.05;0.98;;;;;;;-145.69;83.20;52325.56;5133905;28;20201;-83
2023/03/13 10:50:34;;;;;;;4.15;1.45;;;;;;;-145.69;80.65;52309.72;5132128;28;20582;-82
2023/03/13 10:53:20;;;;;;;4.93;1.20;;;;;;;-145.69;80.56;52266.16;5130556;28;20201;-82
2023/03/13 10:55:47;;;;;;;4.20;1.00;;;;;;;-145.69;80.59;52295.84;5127782;28;20200;-82
2023/03/13 10:58:20;;;;;;;0.85;0.70;;;;;;;-145.69;85.26;52347.34;5123179;28;20193;-82
2023/03/13 11:00:49;;;;;;;4.13;1.00;;;;;;;-145.69;79.58;52283.97;5125075;28;20238;-81
2023/03/13 11:03:19;;;;;;;4.95;1.38;;;;;;;-145.69;86.92;52309.72;5116854;28;20204;-82
2023/03/13 11:05:56;;;;;;;2.85;1.02;;;;;;;-145.69;78.93;52295.84;5123068;28;20219;-82
2023/03/13 11:08:25;;;;;;;5.82;1.08;;;;;;;-145.69;78.15;52309.72;5119277;28;20197;-82
2023/03/13 11:10:57;;;;;;;3.17;1.08;;;;;;;-145.69;83.81;52282.00;5118104;28;20197;-82
2023/03/13 11:13:29;;;;;;;2.67;1.15;;;;;;;-145.69;82.02;52293.88;5123131;28;20664;-82
2023/03/13 11:16:01;;;;;;;3.88;1.33;;;;;;;-145.69;79.21;52293.88;5116220;28;20201;-82